< < Back
Terminal Aerodrome Forecast


Current Version              Previous Versions:   1  2  3  4  5  6  7  8  9  

Terminal Aerodrome Forecast

057
FTUS44 KHUN 311720
TAFHSV
TAF
KHSV 311720Z 3118/0118 22005KT P6SM VCSH SCT045 BKN080 BKN250
     FM010000 VRB04KT P6SM VCSH SCT050 BKN120
     FM010600 36003KT P6SM SKC
     FM011500 09004KT P6SM SCT030=



Latest METAR

925
SAUS80 KWBC 312200 RRA
MTRHSV
METAR KHSV 312153Z 29006KT 10SM FEW040 BKN140 BKN250 24/15 A2991 RMK AO2
SLP125 CB DSNT SE-S AND DSNT SW T02390150


USA.gov is the U.S. government's official web portal to all federal, state and local government web resources and services.